sensor_id;sensor_type;location;lat;lon;timestamp;pressure;altitude;pressure_sealevel;temperature
49785;BMP280;35679;38.732;-121.358;2023-07-22T00:00:15;100496.56;;;31.04
49785;BMP280;35679;38.732;-121.358;2023-07-22T00:03:06;100489.06;;;31.09
49785;BMP280;35679;38.732;-121.358;2023-07-22T00:06:05;100486.25;;;31.14
49785;BMP280;35679;38.732;-121.358;2023-07-22T00:08:55;100481.59;;;31.15
49785;BMP280;35679;38.732;-121.358;2023-07-22T00:11:45;100479.56;;;31.20
49785;BMP280;35679;38.732;-121.358;2023-07-22T00:14:38;100472.69;;;31.23
49785;BMP280;35679;38.732;-121.358;2023-07-22T00:17:28;100473.31;;;31.20
49785;BMP280;35679;38.732;-121.358;2023-07-22T00:20:22;100466.75;;;31.21
49785;BMP280;35679;38.732;-121.358;2023-07-22T00:23:56;100464.22;;;31.24
49785;BMP280;35679;38.732;-121.358;2023-07-22T00:26:46;100462.81;;;31.26
49785;BMP280;35679;38.732;-121.358;2023-07-22T00:29:35;100457.50;;;31.30
49785;BMP280;35679;38.732;-121.358;2023-07-22T00:32:25;100458.81;;;31.32
49785;BMP280;35679;38.732;-121.358;2023-07-22T00:35:16;100457.38;;;31.35
49785;BMP280;35679;38.732;-121.358;2023-07-22T00:38:10;100456.78;;;31.38
49785;BMP280;35679;38.732;-121.358;2023-07-22T00:41:00;100455.03;;;31.42
49785;BMP280;35679;38.732;-121.358;2023-07-22T00:43:54;100454.72;;;31.43
49785;BMP280;35679;38.732;-121.358;2023-07-22T00:46:44;100459.59;;;31.46
49785;BMP280;35679;38.732;-121.358;2023-07-22T00:49:35;100454.59;;;31.48
49785;BMP280;35679;38.732;-121.358;2023-07-22T00:52:25;100445.53;;;31.53
49785;BMP280;35679;38.732;-121.358;2023-07-22T00:55:15;100448.25;;;31.53
49785;BMP280;35679;38.732;-121.358;2023-07-22T00:58:05;100447.16;;;31.54
49785;BMP280;35679;38.732;-121.358;2023-07-22T01:00:54;100445.72;;;31.56
49785;BMP280;35679;38.732;-121.358;2023-07-22T01:03:44;100430.97;;;31.57
49785;BMP280;35679;38.732;-121.358;2023-07-22T01:06:35;100431.78;;;31.58
49785;BMP280;35679;38.732;-121.358;2023-07-22T01:09:25;100428.41;;;31.61
49785;BMP280;35679;38.732;-121.358;2023-07-22T01:12:16;100428.91;;;31.63
49785;BMP280;35679;38.732;-121.358;2023-07-22T01:15:06;100428.59;;;31.64
49785;BMP280;35679;38.732;-121.358;2023-07-22T01:17:57;100421.69;;;31.67
49785;BMP280;35679;38.732;-121.358;2023-07-22T01:20:50;100429.09;;;31.66
49785;BMP280;35679;38.732;-121.358;2023-07-22T01:23:42;100420.59;;;31.68
49785;BMP280;35679;38.732;-121.358;2023-07-22T01:26:32;100428.19;;;31.71
49785;BMP280;35679;38.732;-121.358;2023-07-22T01:29:23;100428.97;;;31.71
49785;BMP280;35679;38.732;-121.358;2023-07-22T01:32:14;100423.19;;;31.73
49785;BMP280;35679;38.732;-121.358;2023-07-22T01:35:04;100418.56;;;31.73
49785;BMP280;35679;38.732;-121.358;2023-07-22T01:37:54;100416.31;;;31.75
49785;BMP280;35679;38.732;-121.358;2023-07-22T01:40:44;100412.78;;;31.75
49785;BMP280;35679;38.732;-121.358;2023-07-22T01:43:34;100407.00;;;31.76
49785;BMP280;35679;38.732;-121.358;2023-07-22T01:46:24;100414.06;;;31.77
49785;BMP280;35679;38.732;-121.358;2023-07-22T01:49:15;100413.75;;;31.79
49785;BMP280;35679;38.732;-121.358;2023-07-22T01:52:05;100413.44;;;31.80
49785;BMP280;35679;38.732;-121.358;2023-07-22T01:54:56;100408.81;;;31.81
49785;BMP280;35679;38.732;-121.358;2023-07-22T01:57:46;100410.88;;;31.84
49785;BMP280;35679;38.732;-121.358;2023-07-22T02:00:35;100412.19;;;31.86
49785;BMP280;35679;38.732;-121.358;2023-07-22T02:03:25;100408.66;;;31.86
49785;BMP280;35679;38.732;-121.358;2023-07-22T02:06:15;100407.06;;;31.85
49785;BMP280;35679;38.732;-121.358;2023-07-22T02:09:04;100407.53;;;31.87
49785;BMP280;35679;38.732;-121.358;2023-07-22T02:12:02;100408.34;;;31.87
49785;BMP280;35679;38.732;-121.358;2023-07-22T02:14:52;100401.78;;;31.88
49785;BMP280;35679;38.732;-121.358;2023-07-22T02:17:42;100398.72;;;31.90
49785;BMP280;35679;38.732;-121.358;2023-07-22T02:20:31;100398.72;;;31.90
49785;BMP280;35679;38.732;-121.358;2023-07-22T02:23:22;100397.63;;;31.91
49785;BMP280;35679;38.732;-121.358;2023-07-22T02:26:11;100405.47;;;31.92
49785;BMP280;35679;38.732;-121.358;2023-07-22T02:29:01;100406.28;;;31.92
49785;BMP280;35679;38.732;-121.358;2023-07-22T02:31:51;100421.53;;;31.93
49785;BMP280;35679;38.732;-121.358;2023-07-22T02:34:42;100417.19;;;31.92
49785;BMP280;35679;38.732;-121.358;2023-07-22T02:37:31;100413.03;;;31.95
49785;BMP280;35679;38.732;-121.358;2023-07-22T02:40:21;100413.84;;;31.95
49785;BMP280;35679;38.732;-121.358;2023-07-22T02:43:11;100409.50;;;31.94
49785;BMP280;35679;38.732;-121.358;2023-07-22T02:46:02;100412.22;;;31.94
49785;BMP280;35679;38.732;-121.358;2023-07-22T02:48:53;100416.91;;;31.94
49785;BMP280;35679;38.732;-121.358;2023-07-22T02:51:44;100419.91;;;31.92
49785;BMP280;35679;38.732;-121.358;2023-07-22T02:54:40;100410.63;;;31.93
49785;BMP280;35679;38.732;-121.358;2023-07-22T02:57:30;100414.47;;;31.92
49785;BMP280;35679;38.732;-121.358;2023-07-22T03:00:20;100416.06;;;31.93
49785;BMP280;35679;38.732;-121.358;2023-07-22T03:03:13;100406.28;;;31.92
49785;BMP280;35679;38.732;-121.358;2023-07-22T03:06:03;100407.41;;;31.92
49785;BMP280;35679;38.732;-121.358;2023-07-22T03:08:54;100409.00;;;31.92
49785;BMP280;35679;38.732;-121.358;2023-07-22T03:11:44;100412.88;;;31.92
49785;BMP280;35679;38.732;-121.358;2023-07-22T03:14:33;100411.25;;;31.91
49785;BMP280;35679;38.732;-121.358;2023-07-22T03:17:26;100411.72;;;31.92
49785;BMP280;35679;38.732;-121.358;2023-07-22T03:20:16;100412.38;;;31.90
49785;BMP280;35679;38.732;-121.358;2023-07-22T03:23:08;100413.47;;;31.89
49785;BMP280;35679;38.732;-121.358;2023-07-22T03:25:59;100415.41;;;31.88
49785;BMP280;35679;38.732;-121.358;2023-07-22T03:28:49;100409.47;;;31.86
49785;BMP280;35679;38.732;-121.358;2023-07-22T03:31:39;100412.50;;;31.85
49785;BMP280;35679;38.732;-121.358;2023-07-22T03:34:29;100405.13;;;31.85
49785;BMP280;35679;38.732;-121.358;2023-07-22T03:37:22;100400.28;;;31.82
49785;BMP280;35679;38.732;-121.358;2023-07-22T03:40:11;100403.03;;;31.82
49785;BMP280;35679;38.732;-121.358;2023-07-22T03:43:12;100411.53;;;31.81
49785;BMP280;35679;38.732;-121.358;2023-07-22T03:46:01;100397.38;;;31.79
49785;BMP280;35679;38.732;-121.358;2023-07-22T03:48:51;100409.41;;;31.78
49785;BMP280;35679;38.732;-121.358;2023-07-22T03:51:40;100410.38;;;31.82
49785;BMP280;35679;38.732;-121.358;2023-07-22T03:54:30;100415.38;;;31.80
49785;BMP280;35679;38.732;-121.358;2023-07-22T03:57:22;100418.91;;;31.80
49785;BMP280;35679;38.732;-121.358;2023-07-22T04:00:14;100414.88;;;31.78
49785;BMP280;35679;38.732;-121.358;2023-07-22T04:03:04;100420.31;;;31.78
49785;BMP280;35679;38.732;-121.358;2023-07-22T04:05:55;100420.66;;;31.76
49785;BMP280;35679;38.732;-121.358;2023-07-22T04:08:44;100424.16;;;31.77
49785;BMP280;35679;38.732;-121.358;2023-07-22T04:11:34;100431.88;;;31.75
49785;BMP280;35679;38.732;-121.358;2023-07-22T04:14:24;100428.31;;;31.74
49785;BMP280;35679;38.732;-121.358;2023-07-22T04:17:13;100420.97;;;31.75
49785;BMP280;35679;38.732;-121.358;2023-07-22T04:20:04;100420.97;;;31.75
49785;BMP280;35679;38.732;-121.358;2023-07-22T04:22:56;100428.19;;;31.71
49785;BMP280;35679;38.732;-121.358;2023-07-22T04:25:47;100426.06;;;31.68
49785;BMP280;35679;38.732;-121.358;2023-07-22T04:28:37;100431.81;;;31.66
49785;BMP280;35679;38.732;-121.358;2023-07-22T04:31:27;100437.59;;;31.65
49785;BMP280;35679;38.732;-121.358;2023-07-22T04:34:17;100432.44;;;31.63
49785;BMP280;35679;38.732;-121.358;2023-07-22T04:37:06;100442.03;;;31.61
49785;BMP280;35679;38.732;-121.358;2023-07-22T04:39:56;100436.59;;;31.61
49785;BMP280;35679;38.732;-121.358;2023-07-22T04:42:45;100440.47;;;31.60
49785;BMP280;35679;38.732;-121.358;2023-07-22T04:45:35;100444.28;;;31.59
49785;BMP280;35679;38.732;-121.358;2023-07-22T04:48:24;100447.63;;;31.56
49785;BMP280;35679;38.732;-121.358;2023-07-22T04:51:15;100447.94;;;31.54
49785;BMP280;35679;38.732;-121.358;2023-07-22T04:54:04;100452.59;;;31.54
49785;BMP280;35679;38.732;-121.358;2023-07-22T04:56:54;100447.47;;;31.52
49785;BMP280;35679;38.732;-121.358;2023-07-22T04:59:43;100460.88;;;31.49
49785;BMP280;35679;38.732;-121.358;2023-07-22T05:02:33;100463.09;;;31.47
49785;BMP280;35679;38.732;-121.358;2023-07-22T05:05:22;100465.34;;;31.45
49785;BMP280;35679;38.732;-121.358;2023-07-22T05:08:12;100458.09;;;31.40
49785;BMP280;35679;38.732;-121.358;2023-07-22T05:11:01;100464.97;;;31.38
49785;BMP280;35679;38.732;-121.358;2023-07-22T05:13:51;100463.97;;;31.34
49785;BMP280;35679;38.732;-121.358;2023-07-22T05:16:40;100468.28;;;31.35
49785;BMP280;35679;38.732;-121.358;2023-07-22T05:19:30;100470.03;;;31.31
49785;BMP280;35679;38.732;-121.358;2023-07-22T05:22:20;100468.72;;;31.28
49785;BMP280;35679;38.732;-121.358;2023-07-22T05:25:09;100464.09;;;31.29
49785;BMP280;35679;38.732;-121.358;2023-07-22T05:27:59;100463.78;;;31.30
49785;BMP280;35679;38.732;-121.358;2023-07-22T05:30:49;100467.13;;;31.27
49785;BMP280;35679;38.732;-121.358;2023-07-22T05:33:38;100461.19;;;31.25
49785;BMP280;35679;38.732;-121.358;2023-07-22T05:36:28;100458.13;;;31.27
49785;BMP280;35679;38.732;-121.358;2023-07-22T05:39:19;100466.94;;;31.24
49785;BMP280;35679;38.732;-121.358;2023-07-22T05:42:08;100472.22;;;31.21
49785;BMP280;35679;38.732;-121.358;2023-07-22T05:44:58;100471.69;;;31.19
49785;BMP280;35679;38.732;-121.358;2023-07-22T05:47:47;100470.38;;;31.16
49785;BMP280;35679;38.732;-121.358;2023-07-22T05:50:37;100476.47;;;31.13
49785;BMP280;35679;38.732;-121.358;2023-07-22T05:53:27;100469.88;;;31.14
49785;BMP280;35679;38.732;-121.358;2023-07-22T05:56:16;100475.34;;;31.14
49785;BMP280;35679;38.732;-121.358;2023-07-22T05:59:05;100475.16;;;31.11
49785;BMP280;35679;38.732;-121.358;2023-07-22T06:01:55;100475.97;;;31.11
49785;BMP280;35679;38.732;-121.358;2023-07-22T06:04:45;100468.41;;;31.08
49785;BMP280;35679;38.732;-121.358;2023-07-22T06:07:34;100475.28;;;31.06
49785;BMP280;35679;38.732;-121.358;2023-07-22T06:10:24;100477.81;;;31.02
49785;BMP280;35679;38.732;-121.358;2023-07-22T06:13:13;100480.03;;;31.00
49785;BMP280;35679;38.732;-121.358;2023-07-22T06:16:03;100474.88;;;30.99
49785;BMP280;35679;38.732;-121.358;2023-07-22T06:18:53;100477.09;;;30.97
49785;BMP280;35679;38.732;-121.358;2023-07-22T06:21:42;100470.84;;;30.96
49785;BMP280;35679;38.732;-121.358;2023-07-22T06:24:32;100479.31;;;30.95
49785;BMP280;35679;38.732;-121.358;2023-07-22T06:27:21;100474.16;;;30.93
49785;BMP280;35679;38.732;-121.358;2023-07-22T06:30:11;100467.09;;;30.92
49785;BMP280;35679;38.732;-121.358;2023-07-22T06:33:01;100469.31;;;30.90
49785;BMP280;35679;38.732;-121.358;2023-07-22T06:35:50;100465.28;;;30.88
49785;BMP280;35679;38.732;-121.358;2023-07-22T06:38:41;100477.28;;;30.87
49785;BMP280;35679;38.732;-121.358;2023-07-22T06:41:30;100475.97;;;30.84
49785;BMP280;35679;38.732;-121.358;2023-07-22T06:44:20;100472.78;;;30.82
49785;BMP280;35679;38.732;-121.358;2023-07-22T06:47:10;100480.31;;;30.85
49785;BMP280;35679;38.732;-121.358;2023-07-22T06:49:59;100476.38;;;30.91
49785;BMP280;35679;38.732;-121.358;2023-07-22T06:52:49;100487.88;;;30.88
49785;BMP280;35679;38.732;-121.358;2023-07-22T06:55:39;100479.22;;;30.86
49785;BMP280;35679;38.732;-121.358;2023-07-22T06:58:30;100486.88;;;30.84
49785;BMP280;35679;38.732;-121.358;2023-07-22T07:01:19;100471.94;;;30.82
49785;BMP280;35679;38.732;-121.358;2023-07-22T07:04:09;100479.63;;;30.80
49785;BMP280;35679;38.732;-121.358;2023-07-22T07:06:59;100472.06;;;30.77
49785;BMP280;35679;38.732;-121.358;2023-07-22T07:09:49;100475.41;;;30.74
49785;BMP280;35679;38.732;-121.358;2023-07-22T07:12:39;100476.00;;;30.71
49785;BMP280;35679;38.732;-121.358;2023-07-22T07:15:29;100484.47;;;30.69
49785;BMP280;35679;38.732;-121.358;2023-07-22T07:18:19;100475.78;;;30.67
49785;BMP280;35679;38.732;-121.358;2023-07-22T07:21:08;100481.88;;;30.64
49785;BMP280;35679;38.732;-121.358;2023-07-22T07:23:58;100478.34;;;30.64
49785;BMP280;35679;38.732;-121.358;2023-07-22T07:26:47;100476.41;;;30.64
49785;BMP280;35679;38.732;-121.358;2023-07-22T07:29:37;100477.03;;;30.61
49785;BMP280;35679;38.732;-121.358;2023-07-22T07:32:41;100478.72;;;30.57
49785;BMP280;35679;38.732;-121.358;2023-07-22T07:35:30;100475.00;;;30.54
49785;BMP280;35679;38.732;-121.358;2023-07-22T07:38:20;100474.00;;;30.50
49785;BMP280;35679;38.732;-121.358;2023-07-22T07:41:10;100478.94;;;30.48
49785;BMP280;35679;38.732;-121.358;2023-07-22T07:44:04;100477.94;;;30.44
49785;BMP280;35679;38.732;-121.358;2023-07-22T07:46:53;100475.28;;;30.39
49785;BMP280;35679;38.732;-121.358;2023-07-22T07:49:42;100469.31;;;30.37
49785;BMP280;35679;38.732;-121.358;2023-07-22T07:52:32;100460.66;;;30.35
49785;BMP280;35679;38.732;-121.358;2023-07-22T07:55:21;100456.31;;;30.34
49785;BMP280;35679;38.732;-121.358;2023-07-22T07:58:11;100461.25;;;30.32
49785;BMP280;35679;38.732;-121.358;2023-07-22T08:01:00;100456.44;;;30.29
49785;BMP280;35679;38.732;-121.358;2023-07-22T08:03:50;100454.00;;;30.27
49785;BMP280;35679;38.732;-121.358;2023-07-22T08:06:40;100460.88;;;30.25
49785;BMP280;35679;38.732;-121.358;2023-07-22T08:09:30;100463.88;;;30.23
49785;BMP280;35679;38.732;-121.358;2023-07-22T08:12:19;100456.00;;;30.22
49785;BMP280;35679;38.732;-121.358;2023-07-22T08:15:09;100451.19;;;30.19
49785;BMP280;35679;38.732;-121.358;2023-07-22T08:17:58;100453.38;;;30.17
49785;BMP280;35679;38.732;-121.358;2023-07-22T08:20:48;100456.00;;;30.22
49785;BMP280;35679;38.732;-121.358;2023-07-22T08:23:37;100449.88;;;30.16
49785;BMP280;35679;38.732;-121.358;2023-07-22T08:26:27;100448.34;;;30.10
49785;BMP280;35679;38.732;-121.358;2023-07-22T08:29:17;100442.38;;;30.08
49785;BMP280;35679;38.732;-121.358;2023-07-22T08:32:06;100442.69;;;30.07
49785;BMP280;35679;38.732;-121.358;2023-07-22T08:34:56;100435.16;;;30.04
49785;BMP280;35679;38.732;-121.358;2023-07-22T08:37:45;100443.09;;;30.00
49785;BMP280;35679;38.732;-121.358;2023-07-22T08:40:40;100444.41;;;30.03
49785;BMP280;35679;38.732;-121.358;2023-07-22T08:43:30;100438.75;;;29.99
49785;BMP280;35679;38.732;-121.358;2023-07-22T08:46:20;100448.34;;;29.97
49785;BMP280;35679;38.732;-121.358;2023-07-22T08:49:12;100453.78;;;29.97
49785;BMP280;35679;38.732;-121.358;2023-07-22T08:52:03;100452.75;;;29.93
49785;BMP280;35679;38.732;-121.358;2023-07-22T08:54:53;100444.38;;;29.89
49785;BMP280;35679;38.732;-121.358;2023-07-22T08:57:45;100440.31;;;29.87
49785;BMP280;35679;38.732;-121.358;2023-07-22T09:00:37;100445.25;;;29.85
49785;BMP280;35679;38.732;-121.358;2023-07-22T09:03:27;100454.00;;;29.82
49785;BMP280;35679;38.732;-121.358;2023-07-22T09:06:17;100448.88;;;29.81
49785;BMP280;35679;38.732;-121.358;2023-07-22T09:09:07;100452.19;;;29.78
49785;BMP280;35679;38.732;-121.358;2023-07-22T09:11:58;100454.41;;;29.76
49785;BMP280;35679;38.732;-121.358;2023-07-22T09:14:49;100456.31;;;29.75
49785;BMP280;35679;38.732;-121.358;2023-07-22T09:17:40;100459.34;;;29.74
49785;BMP280;35679;38.732;-121.358;2023-07-22T09:20:30;100465.38;;;29.71
49785;BMP280;35679;38.732;-121.358;2023-07-22T09:23:35;100460.31;;;29.64
49785;BMP280;35679;38.732;-121.358;2023-07-22T09:26:24;100458.72;;;29.63
49785;BMP280;35679;38.732;-121.358;2023-07-22T09:29:14;100461.44;;;29.63
49785;BMP280;35679;38.732;-121.358;2023-07-22T09:32:04;100462.84;;;29.61
49785;BMP280;35679;38.732;-121.358;2023-07-22T09:34:55;100461.50;;;29.58
49785;BMP280;35679;38.732;-121.358;2023-07-22T09:37:45;100458.28;;;29.56
49785;BMP280;35679;38.732;-121.358;2023-07-22T09:40:34;100461.56;;;29.53
49785;BMP280;35679;38.732;-121.358;2023-07-22T09:43:24;100459.16;;;29.52
49785;BMP280;35679;38.732;-121.358;2023-07-22T09:46:13;100461.97;;;29.47
49785;BMP280;35679;38.732;-121.358;2023-07-22T09:49:13;100474.22;;;29.44
49785;BMP280;35679;38.732;-121.358;2023-07-22T09:52:09;100472.69;;;29.38
49785;BMP280;35679;38.732;-121.358;2023-07-22T09:55:02;100474.84;;;29.41
49785;BMP280;35679;38.732;-121.358;2023-07-22T09:57:57;100475.13;;;29.40
49785;BMP280;35679;38.732;-121.358;2023-07-22T10:00:50;100470.56;;;29.35
49785;BMP280;35679;38.732;-121.358;2023-07-22T10:03:40;100461.66;;;29.30
49785;BMP280;35679;38.732;-121.358;2023-07-22T10:06:33;100457.56;;;29.32
49785;BMP280;35679;38.732;-121.358;2023-07-22T10:09:24;100456.75;;;29.32
49785;BMP280;35679;38.732;-121.358;2023-07-22T10:12:17;100458.94;;;29.30
49785;BMP280;35679;38.732;-121.358;2023-07-22T10:15:08;100462.56;;;29.25
49785;BMP280;35679;38.732;-121.358;2023-07-22T10:18:04;100463.94;;;29.23
49785;BMP280;35679;38.732;-121.358;2023-07-22T10:20:55;100467.97;;;29.25
49785;BMP280;35679;38.732;-121.358;2023-07-22T10:23:46;100470.47;;;29.22
49785;BMP280;35679;38.732;-121.358;2023-07-22T10:26:37;100468.06;;;29.20
49785;BMP280;35679;38.732;-121.358;2023-07-22T10:29:35;100468.38;;;29.19
49785;BMP280;35679;38.732;-121.358;2023-07-22T10:32:24;100467.84;;;29.17
49785;BMP280;35679;38.732;-121.358;2023-07-22T10:35:40;100467.31;;;29.15
49785;BMP280;35679;38.732;-121.358;2023-07-22T10:38:32;100465.50;;;29.11
49785;BMP280;35679;38.732;-121.358;2023-07-22T10:41:21;100460.13;;;29.06
49785;BMP280;35679;38.732;-121.358;2023-07-22T10:44:11;100462.84;;;29.06
49785;BMP280;35679;38.732;-121.358;2023-07-22T10:47:01;100462.63;;;29.02
49785;BMP280;35679;38.732;-121.358;2023-07-22T10:49:52;100465.91;;;28.99
49785;BMP280;35679;38.732;-121.358;2023-07-22T10:52:44;100460.34;;;28.91
49785;BMP280;35679;38.732;-121.358;2023-07-22T10:56:21;100463.63;;;28.88
49785;BMP280;35679;38.732;-121.358;2023-07-22T11:01:36;100470.47;;;28.39
49785;BMP280;35679;38.732;-121.358;2023-07-22T11:04:26;100467.59;;;27.74
49785;BMP280;35679;38.732;-121.358;2023-07-22T11:07:44;100479.25;;;27.36
49785;BMP280;35679;38.732;-121.358;2023-07-22T11:10:36;100476.34;;;27.22
49785;BMP280;35679;38.732;-121.358;2023-07-22T11:13:29;100471.34;;;27.01
49785;BMP280;35679;38.732;-121.358;2023-07-22T11:16:20;100476.06;;;27.29
49785;BMP280;35679;38.732;-121.358;2023-07-22T11:19:10;100466.38;;;27.18
49785;BMP280;35679;38.732;-121.358;2023-07-22T11:22:00;100474.06;;;26.96
49785;BMP280;35679;38.732;-121.358;2023-07-22T11:24:50;100478.47;;;26.82
49785;BMP280;35679;38.732;-121.358;2023-07-22T11:27:40;100476.94;;;26.66
49785;BMP280;35679;38.732;-121.358;2023-07-22T11:30:30;100468.06;;;26.46
49785;BMP280;35679;38.732;-121.358;2023-07-22T11:33:19;100473.50;;;26.36
49785;BMP280;35679;38.732;-121.358;2023-07-22T11:36:09;100463.78;;;26.25
49785;BMP280;35679;38.732;-121.358;2023-07-22T11:39:10;100463.00;;;26.15
49785;BMP280;35679;38.732;-121.358;2023-07-22T11:42:00;100464.91;;;26.04
49785;BMP280;35679;38.732;-121.358;2023-07-22T11:44:51;100461.94;;;25.96
49785;BMP280;35679;38.732;-121.358;2023-07-22T11:47:41;100466.56;;;25.81
49785;BMP280;35679;38.732;-121.358;2023-07-22T11:50:33;100467.38;;;25.76
49785;BMP280;35679;38.732;-121.358;2023-07-22T11:53:26;100469.00;;;25.72
49785;BMP280;35679;38.732;-121.358;2023-07-22T11:56:20;100462.50;;;25.63
49785;BMP280;35679;38.732;-121.358;2023-07-22T11:59:10;100466.28;;;25.62
49785;BMP280;35679;38.732;-121.358;2023-07-22T12:02:00;100475.47;;;25.46
49785;BMP280;35679;38.732;-121.358;2023-07-22T12:07:43;100478.44;;;25.30
49785;BMP280;35679;38.732;-121.358;2023-07-22T12:10:32;100478.94;;;25.17
49785;BMP280;35679;38.732;-121.358;2023-07-22T12:13:22;100493.22;;;25.13
49785;BMP280;35679;38.732;-121.358;2023-07-22T12:16:12;100472.72;;;25.12
49785;BMP280;35679;38.732;-121.358;2023-07-22T12:19:03;100471.84;;;25.01
49785;BMP280;35679;38.732;-121.358;2023-07-22T12:21:52;100475.88;;;24.94
49785;BMP280;35679;38.732;-121.358;2023-07-22T12:24:42;100481.25;;;24.89
49785;BMP280;35679;38.732;-121.358;2023-07-22T12:27:31;100480.19;;;24.90
49785;BMP280;35679;38.732;-121.358;2023-07-22T12:30:21;100491.50;;;24.87
49785;BMP280;35679;38.732;-121.358;2023-07-22T12:33:10;100487.19;;;24.81
49785;BMP280;35679;38.732;-121.358;2023-07-22T12:36:00;100483.09;;;24.73
49785;BMP280;35679;38.732;-121.358;2023-07-22T12:38:49;100489.78;;;24.66
49785;BMP280;35679;38.732;-121.358;2023-07-22T12:41:38;100494.66;;;24.64
49785;BMP280;35679;38.732;-121.358;2023-07-22T12:44:28;100489.25;;;24.59
49785;BMP280;35679;38.732;-121.358;2023-07-22T12:47:18;100498.38;;;24.53
49785;BMP280;35679;38.732;-121.358;2023-07-22T12:50:07;100499.69;;;24.46
49785;BMP280;35679;38.732;-121.358;2023-07-22T12:52:59;100498.88;;;24.45
49785;BMP280;35679;38.732;-121.358;2023-07-22T12:55:48;100506.69;;;24.42
49785;BMP280;35679;38.732;-121.358;2023-07-22T12:58:38;100512.63;;;24.44
49785;BMP280;35679;38.732;-121.358;2023-07-22T13:01:27;100510.94;;;24.38
49785;BMP280;35679;38.732;-121.358;2023-07-22T13:04:17;100520.34;;;24.30
49785;BMP280;35679;38.732;-121.358;2023-07-22T13:07:07;100513.88;;;24.31
49785;BMP280;35679;38.732;-121.358;2023-07-22T13:09:56;100518.16;;;24.27
49785;BMP280;35679;38.732;-121.358;2023-07-22T13:12:48;100521.91;;;24.21
49785;BMP280;35679;38.732;-121.358;2023-07-22T13:15:38;100523.72;;;24.11
49785;BMP280;35679;38.732;-121.358;2023-07-22T13:18:27;100527.53;;;24.15
49785;BMP280;35679;38.732;-121.358;2023-07-22T13:21:17;100527.78;;;24.13
49785;BMP280;35679;38.732;-121.358;2023-07-22T13:24:07;100525.09;;;24.13
49785;BMP280;35679;38.732;-121.358;2023-07-22T13:26:57;100533.13;;;24.03
49785;BMP280;35679;38.732;-121.358;2023-07-22T13:29:47;100527.16;;;24.01
49785;BMP280;35679;38.732;-121.358;2023-07-22T13:32:36;100532.03;;;24.04
49785;BMP280;35679;38.732;-121.358;2023-07-22T13:35:27;100534.97;;;24.03
49785;BMP280;35679;38.732;-121.358;2023-07-22T13:38:17;100525.25;;;24.02
49785;BMP280;35679;38.732;-121.358;2023-07-22T13:41:06;100516.97;;;24.08
49785;BMP280;35679;38.732;-121.358;2023-07-22T13:43:56;100519.41;;;24.10
49785;BMP280;35679;38.732;-121.358;2023-07-22T13:46:46;100530.69;;;24.07
49785;BMP280;35679;38.732;-121.358;2023-07-22T13:49:37;100532.03;;;24.04
49785;BMP280;35679;38.732;-121.358;2023-07-22T13:52:27;100529.59;;;24.03
49785;BMP280;35679;38.732;-121.358;2023-07-22T13:55:17;100535.28;;;24.06
49785;BMP280;35679;38.732;-121.358;2023-07-22T13:58:06;100542.84;;;24.09
49785;BMP280;35679;38.732;-121.358;2023-07-22T14:00:57;100537.22;;;24.11
49785;BMP280;35679;38.732;-121.358;2023-07-22T14:03:49;100540.75;;;24.16
49785;BMP280;35679;38.732;-121.358;2023-07-22T14:06:38;100546.69;;;24.18
49785;BMP280;35679;38.732;-121.358;2023-07-22T14:09:28;100540.78;;;24.21
49785;BMP280;35679;38.732;-121.358;2023-07-22T14:12:18;100546.75;;;24.28
49785;BMP280;35679;38.732;-121.358;2023-07-22T14:15:08;100548.41;;;24.29
49785;BMP280;35679;38.732;-121.358;2023-07-22T14:17:59;100545.16;;;24.32
49785;BMP280;35679;38.732;-121.358;2023-07-22T14:20:48;100548.44;;;24.34
49785;BMP280;35679;38.732;-121.358;2023-07-22T14:23:38;100543.28;;;24.38
49785;BMP280;35679;38.732;-121.358;2023-07-22T14:26:27;100555.28;;;24.47
49785;BMP280;35679;38.732;-121.358;2023-07-22T14:29:17;100553.66;;;24.50
49785;BMP280;35679;38.732;-121.358;2023-07-22T14:32:07;100563.13;;;24.53
49785;BMP280;35679;38.732;-121.358;2023-07-22T14:34:57;100562.09;;;24.59
49785;BMP280;35679;38.732;-121.358;2023-07-22T14:37:47;100572.34;;;24.62
49785;BMP280;35679;38.732;-121.358;2023-07-22T14:40:37;100562.66;;;24.66
49785;BMP280;35679;38.732;-121.358;2023-07-22T14:43:27;100568.63;;;24.73
49785;BMP280;35679;38.732;-121.358;2023-07-22T14:46:16;100571.34;;;24.78
49785;BMP280;35679;38.732;-121.358;2023-07-22T14:49:06;100579.47;;;24.83
49785;BMP280;35679;38.732;-121.358;2023-07-22T14:51:58;100574.66;;;24.90
49785;BMP280;35679;38.732;-121.358;2023-07-22T14:54:48;100583.34;;;24.97
49785;BMP280;35679;38.732;-121.358;2023-07-22T14:57:38;100576.34;;;25.06
49785;BMP280;35679;38.732;-121.358;2023-07-22T15:00:27;100578.81;;;25.12
49785;BMP280;35679;38.732;-121.358;2023-07-22T15:03:20;100580.47;;;25.18
49785;BMP280;35679;38.732;-121.358;2023-07-22T15:06:09;100578.59;;;25.28
49785;BMP280;35679;38.732;-121.358;2023-07-22T15:09:01;100589.41;;;25.33
49785;BMP280;35679;38.732;-121.358;2023-07-22T15:11:50;100586.78;;;25.43
49785;BMP280;35679;38.732;-121.358;2023-07-22T15:14:40;100587.31;;;25.50
49785;BMP280;35679;38.732;-121.358;2023-07-22T15:17:29;100594.34;;;25.56
49785;BMP280;35679;38.732;-121.358;2023-07-22T15:20:21;100596.78;;;25.63
49785;BMP280;35679;38.732;-121.358;2023-07-22T15:23:10;100597.34;;;25.70
49785;BMP280;35679;38.732;-121.358;2023-07-22T15:26:00;100589.28;;;25.75
49785;BMP280;35679;38.732;-121.358;2023-07-22T15:28:49;100596.03;;;25.77
49785;BMP280;35679;38.732;-121.358;2023-07-22T15:31:39;100593.34;;;25.82
49785;BMP280;35679;38.732;-121.358;2023-07-22T15:34:28;100594.41;;;25.86